Time;durP1;ratioP1;P1;durP2;ratioP2;P2;SDS_P1;SDS_P2;PMS_P1;PMS_P2;Temp;Humidity;BMP_temperature;BMP_pressure;BME280_temperature;BME280_humidity;BME280_pressure;Samples;Min_cycle;Max_cycle;Signal;HPM_P1;HPM_P2
2022/12/14 00:01:26;;;;;;;5.22;2.30;;;-3.80;99.90;;;;;;5053597;28;20052;-70
2022/12/14 00:03:53;;;;;;;5.80;2.70;;;-3.80;99.90;;;;;;5051573;28;20037;-69
2022/12/14 00:06:25;;;;;;;4.50;2.72;;;-3.80;99.90;;;;;;5055115;28;20218;-71
2022/12/14 00:08:53;;;;;;;4.35;2.20;;;-3.80;99.90;;;;;;5055795;28;20382;-69
2022/12/14 00:11:21;;;;;;;5.28;2.35;;;-3.80;99.90;;;;;;5063560;28;20420;-69
2022/12/14 00:13:53;;;;;;;6.07;2.50;;;-3.80;99.90;;;;;;5067384;28;20054;-68
2022/12/14 00:16:20;;;;;;;5.10;2.45;;;-3.80;99.90;;;;;;5068759;28;20048;-69
2022/12/14 00:18:51;;;;;;;12.82;2.40;;;-3.80;99.90;;;;;;5058097;28;20106;-68
2022/12/14 00:21:17;;;;;;;5.25;1.98;;;-3.80;99.90;;;;;;5051938;28;20041;-68
2022/12/14 00:23:44;;;;;;;4.32;1.83;;;-3.80;99.90;;;;;;5047451;28;20037;-67
2022/12/14 00:26:15;;;;;;;4.35;2.10;;;-3.80;99.90;;;;;;5041463;28;20041;-70
2022/12/14 00:28:43;;;;;;;4.80;2.47;;;-3.80;99.90;;;;;;5043688;28;20037;-68
2022/12/14 00:31:09;;;;;;;3.40;1.85;;;-3.80;99.90;;;;;;5044342;28;20048;-69
2022/12/14 00:33:36;;;;;;;3.88;1.80;;;-3.80;99.90;;;;;;5044431;28;20742;-69
2022/12/14 00:36:03;;;;;;;3.00;1.85;;;-3.80;99.90;;;;;;5045130;28;20052;-67
2022/12/14 00:38:29;;;;;;;3.72;1.98;;;-3.80;99.90;;;;;;5045422;28;20037;-68
2022/12/14 00:40:55;;;;;;;4.25;1.88;;;-3.80;99.90;;;;;;5046283;28;20638;-69
2022/12/14 00:43:21;;;;;;;3.40;1.90;;;-3.80;99.90;;;;;;5048845;28;20216;-69
2022/12/14 00:45:47;;;;;;;3.30;1.60;;;-3.80;99.90;;;;;;5045798;28;20111;-68
2022/12/14 00:48:13;;;;;;;4.70;1.95;;;-3.80;99.90;;;;;;5052414;28;20076;-68
2022/12/14 00:50:42;;;;;;;5.93;2.20;;;-3.80;99.90;;;;;;5051514;28;20075;-68
2022/12/14 00:53:08;;;;;;;3.40;1.73;;;-3.80;99.90;;;;;;5054465;28;20044;-67
2022/12/14 00:55:42;;;;;;;3.50;1.83;;;-3.90;99.90;;;;;;5050058;28;20037;-68
2022/12/14 00:58:10;;;;;;;3.92;2.00;;;-3.80;99.90;;;;;;5045312;28;20045;-68
2022/12/14 01:00:35;;;;;;;3.60;1.70;;;-3.80;99.90;;;;;;5045144;28;20048;-69
2022/12/14 01:03:01;;;;;;;3.13;1.83;;;-3.80;99.90;;;;;;5048415;28;20045;-67
2022/12/14 01:05:27;;;;;;;4.55;2.03;;;-3.80;99.90;;;;;;5049320;28;20049;-70
2022/12/14 01:07:53;;;;;;;5.20;1.75;;;-3.80;99.90;;;;;;5055205;28;20044;-69
2022/12/14 01:10:19;;;;;;;5.22;2.17;;;-3.80;99.90;;;;;;5051133;28;20417;-68
2022/12/14 01:12:44;;;;;;;3.08;1.52;;;-3.90;99.90;;;;;;5047010;28;20041;-67
2022/12/14 01:15:11;;;;;;;2.45;1.40;;;-3.90;99.90;;;;;;5043584;28;20051;-69
2022/12/14 01:17:36;;;;;;;3.20;1.45;;;-3.90;99.90;;;;;;5050280;28;20037;-69
2022/12/14 01:20:03;;;;;;;3.15;1.60;;;-3.90;99.90;;;;;;5049254;28;20124;-70
2022/12/14 01:22:29;;;;;;;2.97;1.63;;;-3.90;99.90;;;;;;5040021;28;20040;-69
2022/12/14 01:24:54;;;;;;;4.25;2.10;;;-3.90;99.90;;;;;;5043366;28;20033;-67
2022/12/14 01:27:20;;;;;;;2.97;1.60;;;-3.90;99.90;;;;;;5046615;28;20511;-70
2022/12/14 01:29:46;;;;;;;3.20;1.73;;;-3.90;99.90;;;;;;5045465;28;20035;-70
2022/12/14 01:32:12;;;;;;;2.95;1.73;;;-4.00;99.90;;;;;;5045078;28;20045;-69
2022/12/14 01:34:37;;;;;;;2.92;1.40;;;-3.90;99.90;;;;;;5044245;28;20072;-70
2022/12/14 01:37:03;;;;;;;3.42;1.83;;;-4.00;99.90;;;;;;5046667;28;20048;-72
2022/12/14 01:39:29;;;;;;;4.15;1.23;;;-4.00;99.90;;;;;;5051077;28;20416;-69
2022/12/14 01:41:54;;;;;;;4.63;2.17;;;-4.00;99.90;;;;;;5052989;28;20115;-70
2022/12/14 01:44:20;;;;;;;4.93;1.60;;;-4.00;99.90;;;;;;5049428;28;20028;-69
2022/12/14 01:46:57;;;;;;;4.88;2.35;;;-3.90;99.90;;;;;;5047748;28;20405;-73
2022/12/14 01:49:32;;;;;;;2.60;1.55;;;-4.00;99.90;;;;;;5057079;28;20740;-72
2022/12/14 01:52:16;;;;;;;4.88;1.50;;;-4.00;99.90;;;;;;5051737;28;20059;-73
2022/12/14 01:54:59;;;;;;;2.53;1.50;;;-4.00;99.90;;;;;;5050434;28;20037;-74
2022/12/14 01:57:36;;;;;;;2.80;1.40;;;-4.10;99.90;;;;;;5048154;28;20052;-71
2022/12/14 02:00:07;;;;;;;2.55;1.60;;;-4.20;99.90;;;;;;5048483;28;20037;-71
2022/12/14 02:02:35;;;;;;;3.20;1.70;;;-4.10;99.90;;;;;;5048179;28;20987;-68
2022/12/14 02:05:04;;;;;;;2.65;1.50;;;-4.20;99.90;;;;;;5044811;28;20083;-66
2022/12/14 02:07:30;;;;;;;3.95;1.80;;;-4.30;99.90;;;;;;5047787;28;20099;-70
2022/12/14 02:10:01;;;;;;;4.50;1.70;;;-4.30;99.90;;;;;;5046013;28;20569;-67
2022/12/14 02:12:33;;;;;;;3.25;1.60;;;-4.40;99.90;;;;;;5043445;28;20357;-68
2022/12/14 02:15:01;;;;;;;3.25;1.50;;;-4.50;99.90;;;;;;5046103;28;20033;-68
2022/12/14 02:17:27;;;;;;;2.97;1.50;;;-4.50;99.90;;;;;;5044765;28;20382;-70
2022/12/14 02:19:56;;;;;;;3.95;2.15;;;-4.50;99.90;;;;;;5047860;28;20135;-70
2022/12/14 02:22:46;;;;;;;6.80;1.50;;;-4.40;99.90;;;;;;5045270;28;20049;-70
2022/12/14 02:25:40;;;;;;;2.60;1.60;;;-4.30;99.90;;;;;;5040419;28;20048;-67
2022/12/14 02:28:36;;;;;;;4.05;1.88;;;-4.30;99.90;;;;;;5044735;28;20045;-71
2022/12/14 02:31:23;;;;;;;2.92;1.88;;;-4.20;99.90;;;;;;5042305;28;20035;-67
2022/12/14 02:34:35;;;;;;;3.38;1.88;;;-4.20;99.90;;;;;;5048722;28;20040;-70
2022/12/14 02:37:12;;;;;;;5.53;2.45;;;-4.20;99.90;;;;;;5019390;28;20059;-66
2022/12/14 02:40:17;;;;;;;3.45;1.85;;;-4.20;99.90;;;;;;5042961;28;20594;-71
2022/12/14 02:43:26;;;;;;;4.32;2.28;;;-4.20;99.90;;;;;;5045246;28;20048;-70
2022/12/14 02:46:25;;;;;;;4.03;2.20;;;-4.20;99.90;;;;;;5044017;28;20047;-67
2022/12/14 02:49:01;;;;;;;5.85;2.28;;;-4.20;99.90;;;;;;5051140;28;20103;-69
2022/12/14 02:51:33;;;;;;;;;;;-4.10;99.90;;;;;;5048248;28;20045;-69
2022/12/14 02:54:01;;;;;;;4.68;2.05;;;-4.10;99.90;;;;;;5042926;28;19916;-70
2022/12/14 02:56:35;;;;;;;6.97;2.08;;;-4.10;99.90;;;;;;5041303;28;20044;-70
2022/12/14 02:59:02;;;;;;;4.55;1.90;;;-4.10;99.90;;;;;;5050234;28;20025;-66
2022/12/14 03:01:29;;;;;;;4.07;2.03;;;-4.10;99.90;;;;;;5037059;28;20029;-69
2022/12/14 03:03:54;;;;;;;6.82;1.92;;;-4.10;99.90;;;;;;5048010;28;20068;-70
2022/12/14 03:06:26;;;;;;;4.28;2.08;;;-4.10;99.90;;;;;;5050703;28;20764;-67
2022/12/14 03:09:03;;;;;;;4.85;2.05;;;-4.10;99.90;;;;;;5046563;28;20033;-68
2022/12/14 03:11:51;;;;;;;4.28;2.15;;;-4.20;99.90;;;;;;5045820;28;20033;-67
2022/12/14 03:14:26;;;;;;;3.78;2.00;;;-4.10;99.90;;;;;;5050099;28;20059;-69
2022/12/14 03:16:54;;;;;;;3.70;2.13;;;-4.10;99.90;;;;;;5046268;28;20048;-69
2022/12/14 03:19:25;;;;;;;5.55;1.92;;;-4.10;99.90;;;;;;5051264;28;20056;-71
2022/12/14 03:22:02;;;;;;;3.85;2.25;;;-4.20;99.90;;;;;;5049481;28;20048;-70
2022/12/14 03:24:41;;;;;;;7.00;2.92;;;-4.20;99.90;;;;;;5041552;28;20037;-69
2022/12/14 03:27:33;;;;;;;4.82;2.47;;;-4.20;99.90;;;;;;5046523;28;20037;-70
2022/12/14 03:30:09;;;;;;;5.03;2.55;;;-4.20;99.90;;;;;;5044349;28;20560;-70
2022/12/14 03:32:38;;;;;;;;;;;-4.20;99.90;;;;;;5039428;28;21529;-68
2022/12/14 03:35:13;;;;;;;4.60;2.20;;;-4.20;99.90;;;;;;5044994;28;19924;-69
2022/12/14 03:37:51;;;;;;;5.00;2.38;;;-4.30;99.90;;;;;;5048608;28;20037;-69
2022/12/14 03:40:18;;;;;;;3.28;2.15;;;-4.30;99.90;;;;;;5048961;28;20115;-68
2022/12/14 03:43:11;;;;;;;3.58;2.08;;;-4.30;99.90;;;;;;5048256;28;20047;-71
2022/12/14 03:45:42;;;;;;;4.20;2.22;;;-4.40;99.90;;;;;;5037867;28;20128;-71
2022/12/14 03:48:14;;;;;;;5.05;2.50;;;-4.40;99.90;;;;;;5044427;28;20040;-72
2022/12/14 03:50:57;;;;;;;5.85;2.60;;;-4.40;99.90;;;;;;5044673;28;20670;-71
2022/12/14 03:53:33;;;;;;;5.03;2.97;;;-4.40;99.90;;;;;;5046782;28;20037;-69
2022/12/14 03:56:05;;;;;;;;;;;-4.30;99.90;;;;;;5049912;28;20091;-68
2022/12/14 03:59:04;;;;;;;6.07;2.55;;;-4.30;99.90;;;;;;5044955;28;20373;-69
2022/12/14 04:01:39;;;;;;;6.72;2.05;;;-4.30;99.90;;;;;;5030821;28;20029;-68
2022/12/14 04:04:11;;;;;;;4.43;2.00;;;-4.20;99.90;;;;;;5050193;28;20041;-68
2022/12/14 04:06:49;;;;;;;5.13;2.20;;;-4.20;99.90;;;;;;5042933;28;20125;-69
2022/12/14 04:09:26;;;;;;;4.28;2.10;;;-4.10;99.90;;;;;;5045641;28;20087;-69
2022/12/14 04:20:44;;;;;;;4.63;1.98;;;-4.00;99.90;;;;;;5037107;28;20041;-70
2022/12/14 04:26:14;;;;;;;4.97;2.38;;;-3.90;99.90;;;;;;5043545;28;20128;-68
2022/12/14 04:32:00;;;;;;;5.25;2.30;;;-4.00;99.90;;;;;;5043316;28;20040;-70
2022/12/14 04:34:28;;;;;;;3.33;1.70;;;-4.00;99.90;;;;;;5043147;28;20430;-68
2022/12/14 04:36:59;;;;;;;2.95;1.85;;;-4.10;99.90;;;;;;5041271;28;20654;-67
2022/12/14 04:39:35;;;;;;;4.40;1.80;;;-4.10;99.90;;;;;;5044516;28;20076;-68
2022/12/14 04:42:04;;;;;;;4.38;2.25;;;-4.20;99.90;;;;;;5047635;28;20048;-69
2022/12/14 04:44:35;;;;;;;4.18;2.15;;;-4.40;99.90;;;;;;5042586;28;20041;-69
2022/12/14 04:47:03;;;;;;;3.92;2.10;;;-4.40;99.90;;;;;;5044020;28;20099;-67
2022/12/14 04:49:38;;;;;;;3.00;1.88;;;-4.50;99.90;;;;;;5048616;28;20039;-68
2022/12/14 04:52:16;;;;;;;3.58;1.95;;;-4.60;99.90;;;;;;5048282;28;20028;-71
2022/12/14 04:55:01;;;;;;;3.95;2.20;;;-4.60;99.90;;;;;;5047414;28;20032;-68
2022/12/14 04:57:26;;;;;;;4.05;2.15;;;-4.60;99.90;;;;;;5047093;28;20040;-69
2022/12/14 04:59:53;;;;;;;5.03;2.35;;;-4.60;99.90;;;;;;5047225;28;20036;-68
2022/12/14 05:02:41;;;;;;;4.43;1.88;;;-4.60;99.90;;;;;;5042154;28;20092;-68
2022/12/14 05:05:21;;;;;;;5.10;2.20;;;-4.60;99.90;;;;;;5047357;28;20040;-68
2022/12/14 05:07:59;;;;;;;3.63;1.55;;;-4.60;99.90;;;;;;5047743;28;20037;-68
2022/12/14 05:10:29;;;;;;;3.83;2.22;;;-4.60;99.90;;;;;;5055561;28;20389;-71
2022/12/14 05:13:06;;;;;;;3.35;1.77;;;-4.70;99.90;;;;;;5052381;28;20770;-68
2022/12/14 05:15:48;;;;;;;3.28;1.75;;;-4.70;99.90;;;;;;5037828;28;20056;-68
2022/12/14 05:18:14;;;;;;;4.55;1.88;;;-4.80;99.90;;;;;;5043486;28;20037;-68
2022/12/14 05:20:40;;;;;;;2.90;1.95;;;-4.80;99.90;;;;;;5047984;28;20086;-69
2022/12/14 05:23:06;;;;;;;3.47;1.90;;;-4.80;99.90;;;;;;5053235;28;20040;-68
2022/12/14 05:25:31;;;;;;;4.32;2.55;;;-4.70;99.90;;;;;;5046213;28;20055;-67
2022/12/14 05:27:57;;;;;;;5.72;1.92;;;-4.70;99.90;;;;;;5047705;28;20033;-68
2022/12/14 05:30:22;;;;;;;4.03;1.77;;;-4.80;99.90;;;;;;5047881;28;20033;-69
2022/12/14 05:32:48;;;;;;;3.60;1.85;;;-4.80;99.90;;;;;;5049911;28;20037;-66
2022/12/14 05:35:14;;;;;;;5.38;2.70;;;-4.80;99.90;;;;;;5045785;28;20044;-69
2022/12/14 05:37:41;;;;;;;5.00;2.28;;;-4.80;99.90;;;;;;5048285;28;20072;-69
2022/12/14 05:40:08;;;;;;;3.97;2.30;;;-4.70;99.90;;;;;;5049340;28;20040;-67
2022/12/14 05:42:33;;;;;;;5.05;2.40;;;-4.70;99.90;;;;;;5046383;28;20091;-66
2022/12/14 05:44:59;;;;;;;4.80;2.45;;;-4.70;99.90;;;;;;5043880;28;20037;-69
2022/12/14 05:47:25;;;;;;;5.40;2.83;;;-4.70;99.90;;;;;;5041020;28;20696;-68
2022/12/14 05:49:50;;;;;;;5.35;2.35;;;-4.60;99.90;;;;;;5043101;28;20025;-68
2022/12/14 05:52:16;;;;;;;6.38;3.38;;;-4.50;99.90;;;;;;5045600;28;20041;-68
2022/12/14 05:54:42;;;;;;;4.57;2.33;;;-4.50;99.90;;;;;;5044379;28;20396;-68
2022/12/14 05:57:07;;;;;;;4.05;2.53;;;-4.50;99.90;;;;;;5043610;28;20041;-68
2022/12/14 05:59:33;;;;;;;6.55;2.45;;;-4.50;99.90;;;;;;5046353;28;20043;-72
2022/12/14 06:01:59;;;;;;;3.72;2.38;;;-4.50;99.90;;;;;;5044958;28;21317;-68
2022/12/14 06:04:24;;;;;;;6.68;3.33;;;-4.60;99.90;;;;;;5047689;28;20108;-67
2022/12/14 06:06:50;;;;;;;8.20;3.45;;;-4.50;99.90;;;;;;5048561;28;20032;-68
2022/12/14 06:09:16;;;;;;;4.75;2.50;;;-4.50;99.90;;;;;;5048128;28;20094;-68
2022/12/14 06:11:43;;;;;;;7.15;3.33;;;-4.40;99.90;;;;;;5050743;28;20041;-68
2022/12/14 06:14:10;;;;;;;6.75;2.70;;;-4.50;99.90;;;;;;5044866;28;20480;-67
2022/12/14 06:16:40;;;;;;;6.95;3.20;;;-4.50;99.90;;;;;;5040873;28;20056;-68
2022/12/14 06:19:06;;;;;;;5.70;3.50;;;-4.40;99.90;;;;;;5042324;28;20682;-67
2022/12/14 06:21:34;;;;;;;9.38;3.60;;;-4.40;99.90;;;;;;5045229;28;20549;-66
2022/12/14 06:24:01;;;;;;;6.35;3.20;;;-4.40;99.90;;;;;;5042951;28;20040;-69
2022/12/14 06:26:29;;;;;;;5.05;2.85;;;-4.30;99.90;;;;;;5040985;28;20408;-68
2022/12/14 06:28:55;;;;;;;6.97;3.22;;;-4.30;99.90;;;;;;5040743;28;20033;-68
2022/12/14 06:31:24;;;;;;;7.25;2.63;;;-4.30;99.90;;;;;;5040335;28;20456;-69
2022/12/14 06:33:52;;;;;;;6.20;3.03;;;-4.20;99.90;;;;;;5040331;28;20093;-67
2022/12/14 06:36:22;;;;;;;8.10;3.85;;;-4.30;99.90;;;;;;5039152;28;20044;-69
2022/12/14 06:38:48;;;;;;;6.45;3.17;;;-4.30;99.90;;;;;;5042660;28;20091;-71
2022/12/14 06:41:14;;;;;;;7.72;3.67;;;-4.30;99.90;;;;;;5038958;28;20041;-70
2022/12/14 06:43:40;;;;;;;6.65;3.63;;;-4.30;99.90;;;;;;5043018;28;20033;-68
2022/12/14 06:46:10;;;;;;;7.78;3.40;;;-4.30;99.90;;;;;;5042788;28;20045;-69
2022/12/14 06:48:36;;;;;;;11.13;3.85;;;-4.20;99.90;;;;;;5045985;28;20048;-69
2022/12/14 06:51:03;;;;;;;8.32;3.80;;;-4.20;99.90;;;;;;5045163;28;20036;-70
2022/12/14 06:53:32;;;;;;;7.57;3.97;;;-4.10;99.90;;;;;;5046110;28;20147;-69
2022/12/14 06:56:07;;;;;;;8.57;3.33;;;-4.10;99.90;;;;;;5042044;28;20037;-70
2022/12/14 06:58:33;;;;;;;6.43;3.63;;;-4.10;99.90;;;;;;5039999;28;20124;-70
2022/12/14 07:01:08;;;;;;;9.43;4.07;;;-4.00;99.90;;;;;;5043620;28;20120;-70
2022/12/14 07:03:34;;;;;;;9.20;3.83;;;-4.00;99.90;;;;;;5036690;28;20483;-69
2022/12/14 07:06:01;;;;;;;6.78;2.95;;;-4.00;99.90;;;;;;5043033;28;20055;-68
2022/12/14 07:08:28;;;;;;;6.53;3.47;;;-4.00;99.90;;;;;;5043665;28;20063;-69
2022/12/14 07:10:53;;;;;;;7.72;3.70;;;-3.90;99.90;;;;;;5040974;28;20037;-68
2022/12/14 07:13:20;;;;;;;7.32;3.67;;;-3.90;99.90;;;;;;5040718;28;20390;-72
2022/12/14 07:15:53;;;;;;;9.48;4.65;;;-3.90;99.90;;;;;;5041383;28;20094;-69
2022/12/14 07:18:20;;;;;;;7.10;3.95;;;-3.90;99.90;;;;;;5039667;28;20059;-68
2022/12/14 07:21:07;;;;;;;8.40;3.42;;;-3.90;99.90;;;;;;5049880;28;20075;-69
2022/12/14 07:23:36;;;;;;;8.25;3.40;;;-3.90;99.90;;;;;;5040503;28;20033;-68
2022/12/14 07:26:13;;;;;;;8.73;4.07;;;-3.90;99.90;;;;;;5042824;28;20083;-68
2022/12/14 07:28:40;;;;;;;6.50;3.80;;;-3.90;99.90;;;;;;5047148;28;20044;-68
2022/12/14 07:31:23;;;;;;;7.63;3.40;;;-4.00;99.90;;;;;;5045125;28;20034;-68
2022/12/14 07:33:51;;;;;;;6.18;4.15;;;-4.00;99.90;;;;;;5042981;28;20044;-68
2022/12/14 07:36:19;;;;;;;6.80;3.20;;;-3.90;99.90;;;;;;5045287;28;20420;-70
2022/12/14 07:38:46;;;;;;;10.40;3.92;;;-3.90;99.90;;;;;;5052231;28;20518;-69
2022/12/14 07:41:18;;;;;;;8.05;4.22;;;-3.80;99.90;;;;;;5049445;28;20071;-67
2022/12/14 07:43:46;;;;;;;8.57;4.65;;;-3.80;99.90;;;;;;5035941;28;20833;-67
2022/12/14 07:46:15;;;;;;;9.07;4.57;;;-3.80;99.90;;;;;;5048571;28;20327;-69
2022/12/14 07:48:49;;;;;;;9.00;3.90;;;-3.70;99.90;;;;;;5045134;28;20029;-66
2022/12/14 07:51:18;;;;;;;8.88;4.15;;;-3.70;99.90;;;;;;5047102;28;20128;-64
2022/12/14 07:53:44;;;;;;;9.65;4.03;;;-3.70;99.90;;;;;;5050804;28;20071;-66
2022/12/14 07:56:14;;;;;;;9.95;4.78;;;-3.70;99.90;;;;;;5049877;28;20048;-67
2022/12/14 07:58:40;;;;;;;7.38;3.75;;;-3.70;99.90;;;;;;5039991;28;20120;-69
2022/12/14 08:01:09;;;;;;;8.63;3.70;;;-3.60;99.90;;;;;;5043798;28;20374;-64
2022/12/14 08:03:35;;;;;;;8.60;4.13;;;-3.60;99.90;;;;;;5043313;28;20041;-65
2022/12/14 08:06:06;;;;;;;8.20;4.30;;;-3.60;99.90;;;;;;5045238;28;20041;-64
2022/12/14 08:08:32;;;;;;;6.50;3.83;;;-3.60;99.90;;;;;;5048994;28;20048;-67
2022/12/14 08:10:57;;;;;;;11.18;4.70;;;-3.60;99.90;;;;;;5049312;28;20028;-68
2022/12/14 08:13:23;;;;;;;10.30;4.40;;;-3.60;99.90;;;;;;5049380;28;20583;-69
2022/12/14 08:15:49;;;;;;;12.20;4.47;;;-3.50;99.90;;;;;;5048094;28;20037;-69
2022/12/14 08:18:15;;;;;;;10.27;4.50;;;-3.50;99.90;;;;;;5047845;28;20067;-69
2022/12/14 08:20:41;;;;;;;9.35;4.57;;;-3.50;99.90;;;;;;5047335;28;20420;-67
2022/12/14 08:23:06;;;;;;;8.57;4.40;;;-3.50;99.90;;;;;;5049271;28;20132;-67
2022/12/14 08:25:32;;;;;;;9.20;4.47;;;-3.50;99.90;;;;;;5052322;28;20033;-66
2022/12/14 08:27:58;;;;;;;8.60;4.15;;;-3.40;99.90;;;;;;5053596;28;20044;-66
2022/12/14 08:30:23;;;;;;;13.40;5.38;;;-3.30;99.90;;;;;;5050088;28;20037;-68
2022/12/14 08:32:49;;;;;;;10.80;4.45;;;-3.30;99.90;;;;;;5045683;28;20047;-69
2022/12/14 08:35:15;;;;;;;9.15;4.20;;;-3.30;99.90;;;;;;5046745;28;20066;-68
2022/12/14 08:37:41;;;;;;;9.05;4.53;;;-3.30;99.90;;;;;;5047499;28;20634;-68
2022/12/14 08:40:07;;;;;;;13.95;4.70;;;-3.30;99.90;;;;;;5047946;28;20128;-68
2022/12/14 08:42:33;;;;;;;9.68;4.75;;;-3.30;99.90;;;;;;5048860;28;20102;-68
2022/12/14 08:44:58;;;;;;;9.63;4.18;;;-3.20;99.90;;;;;;5046687;28;20036;-66
2022/12/14 08:47:24;;;;;;;10.10;4.40;;;-3.20;99.90;;;;;;5044735;28;20638;-67
2022/12/14 08:49:50;;;;;;;9.45;4.18;;;-3.20;99.90;;;;;;5047917;28;20567;-67
2022/12/14 08:52:15;;;;;;;10.27;5.22;;;-3.20;99.90;;;;;;5041236;28;20121;-67
2022/12/14 08:54:41;;;;;;;10.85;4.43;;;-3.10;99.90;;;;;;5041917;28;20037;-68
2022/12/14 08:57:07;;;;;;;9.50;4.72;;;-3.10;99.90;;;;;;5045192;28;20488;-68
2022/12/14 08:59:32;;;;;;;10.88;5.03;;;-3.00;99.90;;;;;;5045060;28;20033;-67
2022/12/14 09:01:58;;;;;;;9.93;4.75;;;-3.00;99.90;;;;;;5045177;28;20469;-69
2022/12/14 09:04:24;;;;;;;7.95;4.13;;;-2.90;99.90;;;;;;5040086;28;20036;-69
2022/12/14 09:06:50;;;;;;;9.43;4.82;;;-2.90;99.90;;;;;;5039152;28;20045;-67
2022/12/14 09:09:15;;;;;;;12.38;5.45;;;-2.90;99.90;;;;;;5048159;28;20489;-68
2022/12/14 09:11:41;;;;;;;8.18;4.18;;;-3.00;99.90;;;;;;5045505;28;20060;-67
2022/12/14 09:14:07;;;;;;;8.38;4.68;;;-2.90;99.90;;;;;;5047750;28;20120;-66
2022/12/14 09:16:33;;;;;;;9.70;5.25;;;-2.90;99.90;;;;;;5046143;28;20580;-68
2022/12/14 09:18:58;;;;;;;9.75;5.10;;;-2.90;99.90;;;;;;5047339;28;20028;-66
2022/12/14 09:21:24;;;;;;;10.50;5.30;;;-2.90;99.90;;;;;;5051441;28;20037;-67
2022/12/14 09:23:50;;;;;;;9.02;4.07;;;-2.80;99.90;;;;;;5047007;28;20029;-67
2022/12/14 09:26:19;;;;;;;8.43;4.05;;;-2.70;99.90;;;;;;5046810;28;20053;-68
2022/12/14 09:28:48;;;;;;;9.45;4.43;;;-2.60;99.90;;;;;;5049671;28;20040;-69
2022/12/14 09:31:17;;;;;;;8.98;4.43;;;-2.60;99.90;;;;;;5047541;28;20527;-68
2022/12/14 09:33:43;;;;;;;9.02;4.45;;;-2.50;99.90;;;;;;5047712;28;20067;-68
2022/12/14 09:36:17;;;;;;;7.20;4.38;;;-2.50;99.90;;;;;;5041717;28;20041;-68
2022/12/14 09:38:43;;;;;;;9.93;4.70;;;-2.40;99.90;;;;;;5043931;28;20124;-68
2022/12/14 09:41:31;;;;;;;7.78;4.55;;;-2.30;99.90;;;;;;5044534;28;20032;-68
2022/12/14 09:44:34;;;;;;;6.60;4.07;;;-2.40;99.90;;;;;;5043456;28;20043;-67
2022/12/14 09:47:24;;;;;;;9.80;4.70;;;-2.20;99.90;;;;;;5048646;28;20028;-67
2022/12/14 09:49:53;;;;;;;9.98;5.38;;;-2.30;99.90;;;;;;5043167;28;20433;-68
2022/12/14 09:52:31;;;;;;;10.98;4.75;;;-2.40;99.90;;;;;;5036801;28;20178;-67
2022/12/14 09:54:57;;;;;;;12.88;5.28;;;-2.50;99.90;;;;;;5045889;28;20099;-68
2022/12/14 09:57:32;;;;;;;9.45;4.30;;;-2.40;99.90;;;;;;5039350;28;20140;-69
2022/12/14 09:59:57;;;;;;;8.93;4.72;;;-2.40;99.90;;;;;;5048174;28;20036;-68
2022/12/14 10:02:29;;;;;;;11.77;4.93;;;-2.40;99.90;;;;;;5044475;28;20049;-68
2022/12/14 10:05:15;;;;;;;10.88;5.28;;;-2.40;99.90;;;;;;5045439;28;20090;-68
2022/12/14 10:07:49;;;;;;;12.63;5.32;;;-2.40;99.90;;;;;;5043959;28;20512;-70
2022/12/14 10:10:18;;;;;;;8.90;4.65;;;-2.40;99.90;;;;;;5039678;28;20040;-68
2022/12/14 10:12:51;;;;;;;8.43;4.85;;;-2.30;99.90;;;;;;5040262;28;20029;-69
2022/12/14 10:15:47;;;;;;;9.20;4.75;;;-2.20;99.90;;;;;;5039521;28;20123;-69
2022/12/14 10:18:40;;;;;;;10.05;4.95;;;-2.10;99.90;;;;;;5042914;28;20148;-69
2022/12/14 10:21:16;;;;;;;10.18;4.75;;;-2.10;99.90;;;;;;5044781;28;20139;-69
2022/12/14 10:23:56;;;;;;;10.88;5.05;;;-1.90;99.90;;;;;;5044328;28;20040;-69
2022/12/14 10:26:29;;;;;;;12.82;4.70;;;-1.80;99.90;;;;;;5039905;28;20061;-68
2022/12/14 10:28:58;;;;;;;9.30;4.72;;;-1.80;99.90;;;;;;5044619;28;20037;-69
2022/12/14 10:31:39;;;;;;;12.18;5.28;;;-1.70;99.90;;;;;;5040534;28;20041;-68
2022/12/14 10:34:18;;;;;;;8.15;4.85;;;-1.80;99.90;;;;;;5037914;28;20037;-69
2022/12/14 10:36:54;;;;;;;8.88;4.80;;;-1.80;99.90;;;;;;5042471;28;20101;-69
2022/12/14 10:39:25;;;;;;;10.20;5.15;;;-1.90;99.90;;;;;;5034361;28;20044;-68
2022/12/14 10:41:54;;;;;;;10.60;4.10;;;-1.90;99.90;;;;;;5037855;28;20068;-68
2022/12/14 10:44:44;;;;;;;9.07;4.63;;;-1.90;99.90;;;;;;5030418;28;20040;-68
2022/12/14 10:47:25;;;;;;;10.82;5.20;;;-1.80;99.90;;;;;;5035381;28;20076;-68
2022/12/14 10:50:35;;;;;;;10.68;5.00;;;-1.80;99.90;;;;;;5041621;28;20109;-68
2022/12/14 10:53:02;;;;;;;8.90;4.40;;;-1.70;99.90;;;;;;5042371;28;20590;-69
2022/12/14 10:55:33;;;;;;;18.65;5.63;;;-1.70;99.90;;;;;;5041813;28;20037;-68
2022/12/14 10:58:00;;;;;;;11.50;5.68;;;-1.70;99.90;;;;;;5044623;28;20051;-69
2022/12/14 11:00:26;;;;;;;13.05;5.10;;;-1.60;99.90;;;;;;5037599;28;20087;-71
2022/12/14 11:02:54;;;;;;;9.20;5.22;;;-1.50;99.90;;;;;;5040884;28;20083;-70
2022/12/14 11:05:46;;;;;;;15.40;4.65;;;-1.50;99.90;;;;;;5040093;28;20115;-71
2022/12/14 11:08:40;;;;;;;9.02;4.70;;;-1.40;99.90;;;;;;5042815;28;20127;-68
2022/12/14 11:11:23;;;;;;;7.00;4.13;;;-1.30;99.90;;;;;;5039940;28;20041;-70
2022/12/14 11:14:04;;;;;;;7.90;4.65;;;-1.20;99.90;;;;;;5037824;28;20041;-67
2022/12/14 11:16:39;;;;;;;8.98;4.28;;;-1.10;99.90;;;;;;5039906;28;20041;-68
2022/12/14 11:19:15;;;;;;;12.00;4.88;;;-1.10;99.90;;;;;;5045782;28;20055;-69
2022/12/14 11:21:41;;;;;;;7.28;4.10;;;-1.20;99.90;;;;;;5043172;28;20060;-68
2022/12/14 11:24:26;;;;;;;9.10;4.80;;;-1.30;99.90;;;;;;5043832;28;20040;-69
2022/12/14 11:26:57;;;;;;;11.55;4.90;;;-1.30;99.90;;;;;;5043812;28;20067;-69
2022/12/14 11:29:32;;;;;;;10.25;4.38;;;-1.40;99.90;;;;;;5041160;28;20045;-68
2022/12/14 11:31:59;;;;;;;10.70;4.57;;;-1.30;99.90;;;;;;5053373;28;20455;-67
2022/12/14 11:34:39;;;;;;;9.13;5.05;;;-1.30;99.90;;;;;;5055779;28;20047;-66
2022/12/14 11:37:19;;;;;;;10.45;5.40;;;-1.20;99.90;;;;;;5061411;28;20032;-69
2022/12/14 11:39:49;;;;;;;11.75;5.38;;;-1.20;99.90;;;;;;5058181;28;20032;-69
2022/12/14 11:42:18;;;;;;;11.98;5.80;;;-1.20;99.90;;;;;;5056340;28;20075;-69
2022/12/14 11:44:45;;;;;;;11.25;5.28;;;-1.10;99.90;;;;;;5059567;28;20070;-70
2022/12/14 11:47:28;;;;;;;11.10;5.78;;;-1.10;99.90;;;;;;5065263;28;20098;-68
2022/12/14 11:49:59;;;;;;;10.75;5.50;;;-1.00;99.90;;;;;;5055911;28;20101;-69
2022/12/14 11:52:24;;;;;;;10.80;5.47;;;-0.90;99.90;;;;;;5062301;28;20047;-68
2022/12/14 11:54:56;;;;;;;11.32;5.40;;;-0.80;99.90;;;;;;5060312;28;20096;-67
2022/12/14 11:57:33;;;;;;;9.60;5.22;;;-0.80;99.90;;;;;;5055451;28;20500;-71
2022/12/14 12:00:20;;;;;;;13.50;6.13;;;-0.80;99.90;;;;;;5053156;28;20115;-69
2022/12/14 12:03:20;;;;;;;13.60;5.10;;;-0.80;99.90;;;;;;5049710;28;20416;-68
2022/12/14 12:05:46;;;;;;;20.90;5.53;;;-0.80;99.90;;;;;;5055034;28;20051;-68
2022/12/14 12:08:20;;;;;;;11.70;5.63;;;-0.70;99.90;;;;;;5054211;28;20037;-69
2022/12/14 12:10:49;;;;;;;9.02;5.05;;;-0.80;99.90;;;;;;5055537;28;20047;-69
2022/12/14 12:13:27;;;;;;;12.05;5.75;;;-1.00;99.90;;;;;;5050498;28;20051;-69
2022/12/14 12:15:57;;;;;;;28.73;11.77;;;-0.90;99.90;;;;;;5059941;28;20036;-70
2022/12/14 12:18:47;;;;;;;20.42;7.25;;;-1.00;99.90;;;;;;5050362;28;20583;-69
2022/12/14 12:21:18;;;;;;;21.67;6.45;;;-1.00;99.90;;;;;;5062602;28;20056;-68
2022/12/14 12:24:17;;;;;;;12.43;5.85;;;-0.90;99.90;;;;;;5073962;28;20448;-69
2022/12/14 12:26:46;;;;;;;14.30;6.35;;;-0.90;99.90;;;;;;5072227;28;20073;-70
2022/12/14 12:29:16;;;;;;;11.43;5.75;;;-1.00;99.90;;;;;;5070506;28;20036;-70
2022/12/14 12:31:57;;;;;;;16.35;5.95;;;-1.00;99.90;;;;;;5066954;28;20130;-69
2022/12/14 12:34:50;;;;;;;12.52;5.68;;;-0.90;99.90;;;;;;5073473;28;20397;-69
2022/12/14 12:37:28;;;;;;;11.50;5.65;;;-0.90;99.90;;;;;;5061884;28;20132;-69
2022/12/14 12:40:02;;;;;;;11.95;5.22;;;-0.80;99.90;;;;;;5060269;28;20496;-70
2022/12/14 12:42:46;;;;;;;9.57;4.97;;;-0.80;99.90;;;;;;5061185;28;20033;-68
2022/12/14 12:45:23;;;;;;;12.68;5.60;;;-0.80;99.90;;;;;;5060966;28;20118;-68
2022/12/14 12:47:54;;;;;;;9.90;5.22;;;-0.90;99.90;;;;;;5056080;28;20037;-70
2022/12/14 12:50:28;;;;;;;12.02;5.50;;;-0.90;99.90;;;;;;5054069;28;20520;-69
2022/12/14 12:52:54;;;;;;;10.63;5.15;;;-0.90;99.90;;;;;;5068155;28;20043;-68
2022/12/14 12:55:23;;;;;;;9.63;5.38;;;-1.00;99.90;;;;;;5057252;28;20240;-67
2022/12/14 12:57:53;;;;;;;11.63;5.07;;;-1.00;99.90;;;;;;5062427;28;20385;-70
2022/12/14 13:00:24;;;;;;;11.55;5.88;;;-0.90;99.90;;;;;;5055827;28;20044;-69
2022/12/14 13:03:09;;;;;;;14.25;5.95;;;-0.80;99.90;;;;;;5066907;28;20032;-69
2022/12/14 13:05:38;;;;;;;11.77;5.78;;;-0.90;99.90;;;;;;5058075;28;20044;-70
2022/12/14 13:08:16;;;;;;;12.68;6.00;;;-0.90;99.90;;;;;;5061871;28;20040;-69
2022/12/14 13:10:43;;;;;;;10.88;5.65;;;-0.80;99.90;;;;;;5068589;28;20211;-67
2022/12/14 13:13:21;;;;;;;12.43;6.10;;;-0.90;99.90;;;;;;5066449;28;20044;-66
2022/12/14 13:15:51;;;;;;;10.10;5.28;;;-0.90;99.90;;;;;;5069416;28;20072;-67
2022/12/14 13:18:36;;;;;;;12.40;5.72;;;-0.90;99.90;;;;;;5058526;28;20046;-69
2022/12/14 13:21:29;;;;;;;11.45;4.93;;;-1.00;99.90;;;;;;5061506;28;20055;-69
2022/12/14 13:23:55;;;;;;;10.30;5.05;;;-0.90;99.90;;;;;;5055743;28;20098;-69
2022/12/14 13:26:42;;;;;;;13.80;5.38;;;-0.90;99.90;;;;;;5062928;28;20907;-69